Terminal Aerodrome Forecast
Issued by NWS Grand Forks, ND

Home | Current Version | Previous Version | Graphics & Text | Print | Product List | Glossary On
Versions: 1 2 3 4 5 6 7 8 9 10 11 12 13 14
000
FTUS43 KFGF 241720
TAFGFK
TAF
KGFK 241720Z 2418/2518 35012KT P6SM SCT070
      TEMPO 2418/2419 BKN030
     FM250600 VRB06KT P6SM BKN110
     FM251400 27006KT P6SM BKN040=

USA.gov is the U.S. government's official web portal to all federal, state and local government web resources and services.